Augusta, KS

11:31 PM CST on January 30, 2015 (GMT -0600)
The Highlands | Change Station
CLOSE
Current Station
Personal Weather Station
Location: Andover, KS
Elevation: 1326 ft
Nearby Weather Stations

Elev 1326 ft 37.68 °N, 97.12 °W | Updated 7 seconds ago

Overcast
Overcast
38.9 °F
Feels Like 37 °F
N
3.1
Wind Variable Wind from ESE
Gusts 5.8 mph

Today
High -- | Low -- °F
--% Chance of Precip.
Yesterday
High -- | Low -- °F
Precip. -- in
7:33 AM 5:49 PM
Waxing Gibbous, 87% visible
Pressure 30.35 in
Visibility 10.0 miles
Clouds Mostly Cloudy 6000 ft
Overcast 7500 ft
Windchill 37 °F
Dew Point 27 °F
Humidity 61%
Rainfall 0.00 in
Snow Depth Not available.
UV 0 out of 12
Pollen .10 out of 12
Air Quality Not available.
Flu Activity Not available.
METAR KAAO 310454Z AUTO 16005KT 10SM BKN060 OVC075 04/M03 A3031 RMK AO2 RAE11 SLP275 P0000 T00391033

More Conditions Fewer Conditions

Pressure 30.35 in
Visibility 10.0 miles
Clouds Mostly Cloudy 6000 ft
Overcast 7500 ft
Windchill 37 °F
Dew Point 27 °F
Humidity 61%
Rainfall 0.00 in
Snow Depth Not available.
UV 0 out of 12
Pollen .10 out of 12
Air Quality Not available.
Flu Activity Not available.
METAR KAAO 310454Z AUTO 16005KT 10SM BKN060 OVC075 04/M03 A3031 RMK AO2 RAE11 SLP275 P0000 T00391033

More Conditions Fewer Conditions

10-Day Weather Forecast

Almanac

Astronomy

Jan. 30, 2015 Rise Set
Actual Time
Civil Twilight
Nautical Twilight
Astronomical Twilight
Moon
Length of Visible Light
Length of Day
Tomorrow will be .
, % of the Moon is Illuminated

Today's Extremes

State Highs State Lows

Community

WunderPhotos

Upload Photos

1,792,005 photos uploaded!

WunderBlogs® & News

Nearby

Air Quality

  Air Quality AQ Index Pollutant
Not available.

Snow Depth

Station Depth Elevation

Earthquake Activity

City Distance Mag. Time & Date
Minimum magnitude displayed is 2.5.

Coastal Water Temperatures

Place Temperature

Nearby Weather Stations